sensor_id;sensor_type;location;lat;lon;timestamp;pressure;altitude;pressure_sealevel;temperature
75211;BMP280;63796;53.136;14.882;2022-12-29T00:01:26;100436.97;;;8.09
75211;BMP280;63796;53.136;14.882;2022-12-29T00:03:54;100427.14;;;8.08
75211;BMP280;63796;53.136;14.882;2022-12-29T00:06:23;100440.36;;;8.09
75211;BMP280;63796;53.136;14.882;2022-12-29T00:08:50;100434.75;;;8.08
75211;BMP280;63796;53.136;14.882;2022-12-29T00:11:26;100423.08;;;8.12
75211;BMP280;63796;53.136;14.882;2022-12-29T00:14:04;100418.24;;;8.13
75211;BMP280;63796;53.136;14.882;2022-12-29T00:16:49;100419.38;;;8.13
75211;BMP280;63796;53.136;14.882;2022-12-29T00:19:23;100413.52;;;8.15
75211;BMP280;63796;53.136;14.882;2022-12-29T00:22:15;100420.58;;;8.17
75211;BMP280;63796;53.136;14.882;2022-12-29T00:25:09;100420.07;;;8.18
75211;BMP280;63796;53.136;14.882;2022-12-29T00:27:57;100415.05;;;8.19
75211;BMP280;63796;53.136;14.882;2022-12-29T00:30:43;100405.69;;;8.22
75211;BMP280;63796;53.136;14.882;2022-12-29T00:33:33;100408.11;;;8.23
75211;BMP280;63796;53.136;14.882;2022-12-29T00:36:36;100411.46;;;8.24
75211;BMP280;63796;53.136;14.882;2022-12-29T00:39:14;100419.38;;;8.22
75211;BMP280;63796;53.136;14.882;2022-12-29T00:42:09;100413.90;;;8.22
75211;BMP280;63796;53.136;14.882;2022-12-29T00:44:50;100412.18;;;8.19
75211;BMP280;63796;53.136;14.882;2022-12-29T00:47:22;100394.59;;;8.19
75211;BMP280;63796;53.136;14.882;2022-12-29T00:49:53;100427.97;;;8.19
75211;BMP280;63796;53.136;14.882;2022-12-29T00:52:32;100411.72;;;8.17
75211;BMP280;63796;53.136;14.882;2022-12-29T00:55:03;100413.36;;;8.16
75211;BMP280;63796;53.136;14.882;2022-12-29T00:57:39;100406.27;;;8.16
75211;BMP280;63796;53.136;14.882;2022-12-29T01:00:10;100409.03;;;8.13
75211;BMP280;63796;53.136;14.882;2022-12-29T01:02:40;100395.25;;;8.09
75211;BMP280;63796;53.136;14.882;2022-12-29T01:05:13;100388.33;;;8.08
75211;BMP280;63796;53.136;14.882;2022-12-29T01:08:02;100403.35;;;8.05
75211;BMP280;63796;53.136;14.882;2022-12-29T01:11:06;100395.40;;;7.99
75211;BMP280;63796;53.136;14.882;2022-12-29T01:13:24;100380.20;;;7.92
75211;BMP280;63796;53.136;14.882;2022-12-29T01:16:05;100374.61;;;7.89
75211;BMP280;63796;53.136;14.882;2022-12-29T01:21:39;100365.00;;;7.86
75211;BMP280;63796;53.136;14.882;2022-12-29T01:24:16;100367.70;;;7.88
75211;BMP280;63796;53.136;14.882;2022-12-29T01:32:59;100381.81;;;7.93
75211;BMP280;63796;53.136;14.882;2022-12-29T01:38:42;100354.56;;;7.94
75211;BMP280;63796;53.136;14.882;2022-12-29T01:41:59;100354.09;;;7.95
75211;BMP280;63796;53.136;14.882;2022-12-29T01:45:04;100350.95;;;7.99
75211;BMP280;63796;53.136;14.882;2022-12-29T01:49:59;100353.50;;;8.00
75211;BMP280;63796;53.136;14.882;2022-12-29T01:54:09;100344.64;;;8.01
75211;BMP280;63796;53.136;14.882;2022-12-29T01:58:21;100345.08;;;8.04
75211;BMP280;63796;53.136;14.882;2022-12-29T02:01:45;100339.41;;;8.06
75211;BMP280;63796;53.136;14.882;2022-12-29T02:06:15;100327.30;;;8.08
75211;BMP280;63796;53.136;14.882;2022-12-29T02:09:17;100334.30;;;8.11
75211;BMP280;63796;53.136;14.882;2022-12-29T02:12:06;100334.77;;;8.13
75211;BMP280;63796;53.136;14.882;2022-12-29T02:14:33;100334.77;;;8.14
75211;BMP280;63796;53.136;14.882;2022-12-29T02:32:07;100299.11;;;7.97
75211;BMP280;63796;53.136;14.882;2022-12-29T02:38:06;100292.64;;;7.99
75211;BMP280;63796;53.136;14.882;2022-12-29T02:40:42;100292.00;;;7.99
75211;BMP280;63796;53.136;14.882;2022-12-29T02:49:07;100279.55;;;8.03
75211;BMP280;63796;53.136;14.882;2022-12-29T02:51:58;100267.78;;;8.02
75211;BMP280;63796;53.136;14.882;2022-12-29T02:54:21;100275.89;;;8.00
75211;BMP280;63796;53.136;14.882;2022-12-29T02:59:59;100274.17;;;8.05
75211;BMP280;63796;53.136;14.882;2022-12-29T03:11:17;100273.84;;;8.05
75211;BMP280;63796;53.136;14.882;2022-12-29T03:14:30;100267.24;;;8.06
75211;BMP280;63796;53.136;14.882;2022-12-29T03:17:46;100258.84;;;8.07
75211;BMP280;63796;53.136;14.882;2022-12-29T03:20:14;100278.14;;;8.08
75211;BMP280;63796;53.136;14.882;2022-12-29T03:22:44;100264.77;;;8.09
75211;BMP280;63796;53.136;14.882;2022-12-29T03:25:25;100256.20;;;8.10
75211;BMP280;63796;53.136;14.882;2022-12-29T03:28:17;100259.59;;;8.11
75211;BMP280;63796;53.136;14.882;2022-12-29T03:30:41;100248.45;;;8.11
75211;BMP280;63796;53.136;14.882;2022-12-29T03:33:12;100276.80;;;8.12
75211;BMP280;63796;53.136;14.882;2022-12-29T03:35:43;100270.11;;;8.16
75211;BMP280;63796;53.136;14.882;2022-12-29T03:41:06;100266.31;;;8.21
75211;BMP280;63796;53.136;14.882;2022-12-29T03:43:30;100276.47;;;8.23
75211;BMP280;63796;53.136;14.882;2022-12-29T03:45:57;100254.69;;;8.25
75211;BMP280;63796;53.136;14.882;2022-12-29T03:48:24;100260.27;;;8.28
75211;BMP280;63796;53.136;14.882;2022-12-29T03:50:51;100249.25;;;8.31
75211;BMP280;63796;53.136;14.882;2022-12-29T03:53:18;100247.64;;;8.31
75211;BMP280;63796;53.136;14.882;2022-12-29T03:55:45;100235.55;;;8.31
75211;BMP280;63796;53.136;14.882;2022-12-29T03:58:12;100246.67;;;8.31
75211;BMP280;63796;53.136;14.882;2022-12-29T04:00:39;100230.91;;;8.29
75211;BMP280;63796;53.136;14.882;2022-12-29T04:03:06;100240.87;;;8.30
75211;BMP280;63796;53.136;14.882;2022-12-29T04:05:33;100227.30;;;8.33
75211;BMP280;63796;53.136;14.882;2022-12-29T04:07:59;100226.41;;;8.37
75211;BMP280;63796;53.136;14.882;2022-12-29T04:10:26;100223.60;;;8.41
75211;BMP280;63796;53.136;14.882;2022-12-29T04:12:53;100213.09;;;8.42
75211;BMP280;63796;53.136;14.882;2022-12-29T04:15:20;100206.45;;;8.44
75211;BMP280;63796;53.136;14.882;2022-12-29T04:17:47;100208.19;;;8.46
75211;BMP280;63796;53.136;14.882;2022-12-29T04:20:14;100204.55;;;8.50
75211;BMP280;63796;53.136;14.882;2022-12-29T04:23:01;100223.37;;;8.52
75211;BMP280;63796;53.136;14.882;2022-12-29T04:25:28;100208.39;;;8.51
75211;BMP280;63796;53.136;14.882;2022-12-29T04:27:56;100207.39;;;8.54
75211;BMP280;63796;53.136;14.882;2022-12-29T04:30:23;100219.77;;;8.55
75211;BMP280;63796;53.136;14.882;2022-12-29T04:32:50;100202.45;;;8.58
75211;BMP280;63796;53.136;14.882;2022-12-29T04:35:17;100209.13;;;8.62
75211;BMP280;63796;53.136;14.882;2022-12-29T04:37:43;100203.90;;;8.66
75211;BMP280;63796;53.136;14.882;2022-12-29T04:40:11;100200.00;;;8.67
75211;BMP280;63796;53.136;14.882;2022-12-29T04:42:38;100219.66;;;8.68
75211;BMP280;63796;53.136;14.882;2022-12-29T04:45:06;100218.18;;;8.70
75211;BMP280;63796;53.136;14.882;2022-12-29T04:47:33;100217.63;;;8.72
75211;BMP280;63796;53.136;14.882;2022-12-29T04:50:00;100218.92;;;8.72
75211;BMP280;63796;53.136;14.882;2022-12-29T04:52:27;100220.18;;;8.73
75211;BMP280;63796;53.136;14.882;2022-12-29T04:54:54;100221.56;;;8.77
75211;BMP280;63796;53.136;14.882;2022-12-29T04:57:21;100206.46;;;8.81
75211;BMP280;63796;53.136;14.882;2022-12-29T04:59:49;100200.49;;;8.81
75211;BMP280;63796;53.136;14.882;2022-12-29T05:02:17;100187.69;;;8.84
75211;BMP280;63796;53.136;14.882;2022-12-29T05:04:43;100201.07;;;8.85
75211;BMP280;63796;53.136;14.882;2022-12-29T05:07:10;100200.39;;;8.86
75211;BMP280;63796;53.136;14.882;2022-12-29T05:09:40;100202.13;;;8.88
75211;BMP280;63796;53.136;14.882;2022-12-29T05:12:07;100190.61;;;8.91
75211;BMP280;63796;53.136;14.882;2022-12-29T05:14:34;100194.60;;;8.92
75211;BMP280;63796;53.136;14.882;2022-12-29T05:17:01;100180.53;;;8.94
75211;BMP280;63796;53.136;14.882;2022-12-29T05:19:28;100199.17;;;8.97
75211;BMP280;63796;53.136;14.882;2022-12-29T05:21:55;100198.49;;;8.99
75211;BMP280;63796;53.136;14.882;2022-12-29T05:24:22;100199.39;;;9.03
75211;BMP280;63796;53.136;14.882;2022-12-29T05:26:49;100173.34;;;9.07
75211;BMP280;63796;53.136;14.882;2022-12-29T05:29:16;100185.17;;;9.11
75211;BMP280;63796;53.136;14.882;2022-12-29T05:31:42;100162.55;;;9.13
75211;BMP280;63796;53.136;14.882;2022-12-29T05:34:11;100172.80;;;9.16
75211;BMP280;63796;53.136;14.882;2022-12-29T05:36:39;100172.52;;;9.20
75211;BMP280;63796;53.136;14.882;2022-12-29T05:39:05;100190.91;;;9.21
75211;BMP280;63796;53.136;14.882;2022-12-29T05:41:34;100172.57;;;9.24
75211;BMP280;63796;53.136;14.882;2022-12-29T05:44:01;100162.97;;;9.29
75211;BMP280;63796;53.136;14.882;2022-12-29T05:46:28;100143.20;;;9.31
75211;BMP280;63796;53.136;14.882;2022-12-29T05:48:55;100136.78;;;9.30
75211;BMP280;63796;53.136;14.882;2022-12-29T05:51:22;100155.23;;;9.28
75211;BMP280;63796;53.136;14.882;2022-12-29T05:53:49;100150.91;;;9.27
75211;BMP280;63796;53.136;14.882;2022-12-29T05:56:16;100144.00;;;9.25
75211;BMP280;63796;53.136;14.882;2022-12-29T05:58:43;100144.89;;;9.22
75211;BMP280;63796;53.136;14.882;2022-12-29T06:01:09;100147.22;;;9.19
75211;BMP280;63796;53.136;14.882;2022-12-29T06:03:36;100152.63;;;9.16
75211;BMP280;63796;53.136;14.882;2022-12-29T06:06:03;100149.63;;;9.13
75211;BMP280;63796;53.136;14.882;2022-12-29T06:08:30;100156.25;;;9.12
75211;BMP280;63796;53.136;14.882;2022-12-29T06:10:57;100144.56;;;9.15
75211;BMP280;63796;53.136;14.882;2022-12-29T06:13:24;100142.78;;;9.16
75211;BMP280;63796;53.136;14.882;2022-12-29T06:15:51;100118.38;;;9.17
75211;BMP280;63796;53.136;14.882;2022-12-29T06:18:18;100121.73;;;9.19
75211;BMP280;63796;53.136;14.882;2022-12-29T06:20:45;100129.44;;;9.20
75211;BMP280;63796;53.136;14.882;2022-12-29T06:23:11;100132.14;;;9.22
75211;BMP280;63796;53.136;14.882;2022-12-29T06:25:39;100146.05;;;9.21
75211;BMP280;63796;53.136;14.882;2022-12-29T06:28:06;100146.83;;;9.22
75211;BMP280;63796;53.136;14.882;2022-12-29T06:30:33;100149.05;;;9.24
75211;BMP280;63796;53.136;14.882;2022-12-29T06:33:00;100152.72;;;9.26
75211;BMP280;63796;53.136;14.882;2022-12-29T06:35:27;100155.91;;;9.27
75211;BMP280;63796;53.136;14.882;2022-12-29T06:37:54;100147.80;;;9.28
75211;BMP280;63796;53.136;14.882;2022-12-29T06:40:21;100149.41;;;9.29
75211;BMP280;63796;53.136;14.882;2022-12-29T06:42:48;100150.34;;;9.30
75211;BMP280;63796;53.136;14.882;2022-12-29T06:45:15;100161.41;;;9.33
75211;BMP280;63796;53.136;14.882;2022-12-29T06:47:41;100153.13;;;9.34
75211;BMP280;63796;53.136;14.882;2022-12-29T06:50:09;100148.05;;;9.38
75211;BMP280;63796;53.136;14.882;2022-12-29T06:52:36;100143.09;;;9.42
75211;BMP280;63796;53.136;14.882;2022-12-29T06:55:04;100132.72;;;9.44
75211;BMP280;63796;53.136;14.882;2022-12-29T06:57:30;100146.72;;;9.46
75211;BMP280;63796;53.136;14.882;2022-12-29T06:59:57;100137.95;;;9.48
75211;BMP280;63796;53.136;14.882;2022-12-29T07:02:24;100141.11;;;9.50
75211;BMP280;63796;53.136;14.882;2022-12-29T07:04:52;100139.86;;;9.48
75211;BMP280;63796;53.136;14.882;2022-12-29T07:07:19;100145.23;;;9.53
75211;BMP280;63796;53.136;14.882;2022-12-29T07:09:47;100148.58;;;9.55
75211;BMP280;63796;53.136;14.882;2022-12-29T07:12:14;100150.39;;;9.60
75211;BMP280;63796;53.136;14.882;2022-12-29T07:14:41;100148.77;;;9.60
75211;BMP280;63796;53.136;14.882;2022-12-29T07:17:07;100148.89;;;9.62
75211;BMP280;63796;53.136;14.882;2022-12-29T07:19:35;100159.31;;;9.64
75211;BMP280;63796;53.136;14.882;2022-12-29T07:22:01;100167.14;;;9.67
75211;BMP280;63796;53.136;14.882;2022-12-29T07:24:28;100165.56;;;9.66
75211;BMP280;63796;53.136;14.882;2022-12-29T07:26:56;100177.88;;;9.64
75211;BMP280;63796;53.136;14.882;2022-12-29T07:29:23;100179.25;;;9.62
75211;BMP280;63796;53.136;14.882;2022-12-29T07:31:50;100179.05;;;9.57
75211;BMP280;63796;53.136;14.882;2022-12-29T07:34:17;100162.66;;;9.54
75211;BMP280;63796;53.136;14.882;2022-12-29T07:36:44;100178.80;;;9.54
75211;BMP280;63796;53.136;14.882;2022-12-29T07:39:10;100185.50;;;9.50
75211;BMP280;63796;53.136;14.882;2022-12-29T07:41:38;100185.54;;;9.49
75211;BMP280;63796;53.136;14.882;2022-12-29T07:44:05;100186.27;;;9.51
75211;BMP280;63796;53.136;14.882;2022-12-29T07:46:32;100174.66;;;9.58
75211;BMP280;63796;53.136;14.882;2022-12-29T07:48:59;100162.21;;;9.59
75211;BMP280;63796;53.136;14.882;2022-12-29T07:51:26;100161.69;;;9.60
75211;BMP280;63796;53.136;14.882;2022-12-29T07:53:52;100151.67;;;9.67
75211;BMP280;63796;53.136;14.882;2022-12-29T07:56:19;100163.55;;;9.69
75211;BMP280;63796;53.136;14.882;2022-12-29T07:58:46;100155.23;;;9.67
75211;BMP280;63796;53.136;14.882;2022-12-29T08:01:13;100163.19;;;9.65
75211;BMP280;63796;53.136;14.882;2022-12-29T08:03:40;100180.82;;;9.64
75211;BMP280;63796;53.136;14.882;2022-12-29T08:06:10;100168.11;;;9.62
75211;BMP280;63796;53.136;14.882;2022-12-29T08:08:37;100162.13;;;9.62
75211;BMP280;63796;53.136;14.882;2022-12-29T08:11:04;100150.18;;;9.68
75211;BMP280;63796;53.136;14.882;2022-12-29T08:13:31;100148.03;;;9.76
75211;BMP280;63796;53.136;14.882;2022-12-29T08:15:58;100143.17;;;9.88
75211;BMP280;63796;53.136;14.882;2022-12-29T08:18:25;100148.89;;;9.97
75211;BMP280;63796;53.136;14.882;2022-12-29T08:20:52;100149.00;;;10.05
75211;BMP280;63796;53.136;14.882;2022-12-29T08:23:18;100147.38;;;10.06
75211;BMP280;63796;53.136;14.882;2022-12-29T08:25:45;100131.33;;;10.09
75211;BMP280;63796;53.136;14.882;2022-12-29T08:28:12;100145.05;;;10.09
75211;BMP280;63796;53.136;14.882;2022-12-29T08:30:39;100155.30;;;10.13
75211;BMP280;63796;53.136;14.882;2022-12-29T08:33:06;100140.97;;;10.22
75211;BMP280;63796;53.136;14.882;2022-12-29T08:35:32;100148.03;;;10.29
75211;BMP280;63796;53.136;14.882;2022-12-29T08:37:59;100159.73;;;10.33
75211;BMP280;63796;53.136;14.882;2022-12-29T08:40:26;100139.00;;;10.34
75211;BMP280;63796;53.136;14.882;2022-12-29T08:42:56;100140.38;;;10.32
75211;BMP280;63796;53.136;14.882;2022-12-29T08:45:23;100138.90;;;10.38
75211;BMP280;63796;53.136;14.882;2022-12-29T08:47:49;100150.20;;;10.55
75211;BMP280;63796;53.136;14.882;2022-12-29T08:50:17;100162.19;;;10.76
75211;BMP280;63796;53.136;14.882;2022-12-29T08:52:43;100150.01;;;10.98
75211;BMP280;63796;53.136;14.882;2022-12-29T08:55:10;100156.09;;;11.20
75211;BMP280;63796;53.136;14.882;2022-12-29T08:57:38;100149.80;;;11.45
75211;BMP280;63796;53.136;14.882;2022-12-29T09:00:06;100154.54;;;11.72
75211;BMP280;63796;53.136;14.882;2022-12-29T09:02:33;100141.91;;;11.96
75211;BMP280;63796;53.136;14.882;2022-12-29T09:05:00;100137.56;;;12.09
75211;BMP280;63796;53.136;14.882;2022-12-29T09:07:27;100134.85;;;12.34
75211;BMP280;63796;53.136;14.882;2022-12-29T09:09:53;100131.94;;;12.72
75211;BMP280;63796;53.136;14.882;2022-12-29T09:12:20;100131.86;;;13.03
75211;BMP280;63796;53.136;14.882;2022-12-29T09:14:47;100121.50;;;13.30
75211;BMP280;63796;53.136;14.882;2022-12-29T09:17:14;100121.06;;;13.44
75211;BMP280;63796;53.136;14.882;2022-12-29T09:19:59;100113.36;;;13.38
75211;BMP280;63796;53.136;14.882;2022-12-29T09:22:25;100131.73;;;13.14
75211;BMP280;63796;53.136;14.882;2022-12-29T09:24:52;100131.38;;;13.03
75211;BMP280;63796;53.136;14.882;2022-12-29T09:27:19;100113.05;;;12.94
75211;BMP280;63796;53.136;14.882;2022-12-29T09:29:45;100112.08;;;12.93
75211;BMP280;63796;53.136;14.882;2022-12-29T09:32:12;100114.87;;;13.02
75211;BMP280;63796;53.136;14.882;2022-12-29T09:34:39;100108.40;;;13.13
75211;BMP280;63796;53.136;14.882;2022-12-29T09:37:05;100110.77;;;13.38
75211;BMP280;63796;53.136;14.882;2022-12-29T09:39:32;100097.64;;;13.72
75211;BMP280;63796;53.136;14.882;2022-12-29T09:42:41;100100.48;;;14.10
75211;BMP280;63796;53.136;14.882;2022-12-29T09:45:28;100080.31;;;15.36
75211;BMP280;63796;53.136;14.882;2022-12-29T09:47:55;100096.02;;;15.19
75211;BMP280;63796;53.136;14.882;2022-12-29T09:50:28;100083.36;;;15.30
75211;BMP280;63796;53.136;14.882;2022-12-29T09:53:05;100105.20;;;15.47
75211;BMP280;63796;53.136;14.882;2022-12-29T09:55:41;100082.39;;;15.75
75211;BMP280;63796;53.136;14.882;2022-12-29T09:58:41;100073.05;;;20.41
75211;BMP280;63796;53.136;14.882;2022-12-29T10:01:16;100068.55;;;23.05
75211;BMP280;63796;53.136;14.882;2022-12-29T10:03:52;100058.61;;;24.48
75211;BMP280;63796;53.136;14.882;2022-12-29T10:06:39;100053.08;;;25.59
75211;BMP280;63796;53.136;14.882;2022-12-29T10:21:13;100052.07;;;18.11
75211;BMP280;63796;53.136;14.882;2022-12-29T10:23:50;100036.28;;;22.35
75211;BMP280;63796;53.136;14.882;2022-12-29T10:26:17;100059.22;;;22.69
75211;BMP280;63796;53.136;14.882;2022-12-29T10:28:58;100037.96;;;25.26
75211;BMP280;63796;53.136;14.882;2022-12-29T10:31:43;100022.85;;;26.26
75211;BMP280;63796;53.136;14.882;2022-12-29T10:34:25;100026.53;;;26.22
75211;BMP280;63796;53.136;14.882;2022-12-29T10:39:54;100046.67;;;21.87
75211;BMP280;63796;53.136;14.882;2022-12-29T10:42:35;100060.43;;;21.70
75211;BMP280;63796;53.136;14.882;2022-12-29T10:45:08;100056.80;;;23.28
75211;BMP280;63796;53.136;14.882;2022-12-29T10:47:40;100054.55;;;23.31
75211;BMP280;63796;53.136;14.882;2022-12-29T10:50:07;100039.83;;;23.43
75211;BMP280;63796;53.136;14.882;2022-12-29T10:52:37;100047.17;;;19.63
75211;BMP280;63796;53.136;14.882;2022-12-29T10:55:12;100048.01;;;17.85
75211;BMP280;63796;53.136;14.882;2022-12-29T10:57:45;100064.03;;;16.70
75211;BMP280;63796;53.136;14.882;2022-12-29T11:00:19;100056.59;;;15.79
75211;BMP280;63796;53.136;14.882;2022-12-29T11:08:23;100054.43;;;14.77
75211;BMP280;63796;53.136;14.882;2022-12-29T11:11:08;100052.89;;;14.58
75211;BMP280;63796;53.136;14.882;2022-12-29T11:14:02;100044.14;;;14.40
75211;BMP280;63796;53.136;14.882;2022-12-29T11:19:25;100055.89;;;14.29
75211;BMP280;63796;53.136;14.882;2022-12-29T11:21:55;100049.85;;;14.15
75211;BMP280;63796;53.136;14.882;2022-12-29T11:24:28;100046.67;;;14.14
75211;BMP280;63796;53.136;14.882;2022-12-29T11:27:26;100048.06;;;14.36
75211;BMP280;63796;53.136;14.882;2022-12-29T11:29:54;100043.06;;;14.56
75211;BMP280;63796;53.136;14.882;2022-12-29T11:32:24;100043.97;;;14.64
75211;BMP280;63796;53.136;14.882;2022-12-29T11:34:52;100048.75;;;14.60
75211;BMP280;63796;53.136;14.882;2022-12-29T11:37:39;100047.95;;;14.56
75211;BMP280;63796;53.136;14.882;2022-12-29T11:40:20;100033.55;;;14.58
75211;BMP280;63796;53.136;14.882;2022-12-29T11:42:58;100038.28;;;14.98
75211;BMP280;63796;53.136;14.882;2022-12-29T11:45:32;100039.98;;;15.16
75211;BMP280;63796;53.136;14.882;2022-12-29T11:48:07;100051.94;;;15.50
75211;BMP280;63796;53.136;14.882;2022-12-29T11:50:41;100040.63;;;15.97
75211;BMP280;63796;53.136;14.882;2022-12-29T11:53:31;100056.23;;;15.80
75211;BMP280;63796;53.136;14.882;2022-12-29T11:55:58;100045.48;;;15.29
75211;BMP280;63796;53.136;14.882;2022-12-29T11:58:32;100049.86;;;15.10
75211;BMP280;63796;53.136;14.882;2022-12-29T12:01:30;100046.05;;;14.89
75211;BMP280;63796;53.136;14.882;2022-12-29T12:04:16;100045.24;;;14.75
75211;BMP280;63796;53.136;14.882;2022-12-29T12:07:23;100041.48;;;14.65
75211;BMP280;63796;53.136;14.882;2022-12-29T12:09:54;100050.45;;;14.58
75211;BMP280;63796;53.136;14.882;2022-12-29T12:12:29;100044.31;;;14.57
75211;BMP280;63796;53.136;14.882;2022-12-29T12:14:59;100037.95;;;14.54
75211;BMP280;63796;53.136;14.882;2022-12-29T12:20:42;100032.83;;;14.55
75211;BMP280;63796;53.136;14.882;2022-12-29T12:23:40;100050.50;;;14.57
75211;BMP280;63796;53.136;14.882;2022-12-29T12:26:03;100050.52;;;14.46
75211;BMP280;63796;53.136;14.882;2022-12-29T12:28:46;100053.25;;;14.33
75211;BMP280;63796;53.136;14.882;2022-12-29T12:31:41;100060.68;;;14.20
75211;BMP280;63796;53.136;14.882;2022-12-29T12:33:48;100062.27;;;14.10
75211;BMP280;63796;53.136;14.882;2022-12-29T12:48:48;100049.19;;;13.79
75211;BMP280;63796;53.136;14.882;2022-12-29T12:54:27;100045.50;;;13.89
75211;BMP280;63796;53.136;14.882;2022-12-29T13:00:16;100051.48;;;13.83
75211;BMP280;63796;53.136;14.882;2022-12-29T13:03:17;100057.41;;;13.81
75211;BMP280;63796;53.136;14.882;2022-12-29T13:12:25;100049.91;;;13.82
75211;BMP280;63796;53.136;14.882;2022-12-29T13:15:21;100041.44;;;13.79
75211;BMP280;63796;53.136;14.882;2022-12-29T13:18:10;100055.78;;;13.74
75211;BMP280;63796;53.136;14.882;2022-12-29T13:23:39;100064.52;;;13.64
75211;BMP280;63796;53.136;14.882;2022-12-29T13:26:23;100052.77;;;13.57
75211;BMP280;63796;53.136;14.882;2022-12-29T13:29:03;100060.34;;;13.59
75211;BMP280;63796;53.136;14.882;2022-12-29T13:31:56;100049.06;;;13.60
75211;BMP280;63796;53.136;14.882;2022-12-29T13:34:40;100055.53;;;13.57
75211;BMP280;63796;53.136;14.882;2022-12-29T13:37:25;100070.97;;;13.50
75211;BMP280;63796;53.136;14.882;2022-12-29T13:40:10;100082.54;;;13.53
75211;BMP280;63796;53.136;14.882;2022-12-29T13:42:36;100060.97;;;13.56
75211;BMP280;63796;53.136;14.882;2022-12-29T13:45:18;100073.75;;;13.53
75211;BMP280;63796;53.136;14.882;2022-12-29T13:47:50;100072.13;;;13.49
75211;BMP280;63796;53.136;14.882;2022-12-29T13:50:21;100064.77;;;13.43
75211;BMP280;63796;53.136;14.882;2022-12-29T13:53:18;100077.85;;;13.37
75211;BMP280;63796;53.136;14.882;2022-12-29T13:55:58;100085.47;;;13.33
75211;BMP280;63796;53.136;14.882;2022-12-29T13:58:37;100089.32;;;13.31
75211;BMP280;63796;53.136;14.882;2022-12-29T14:01:30;100088.82;;;13.27
75211;BMP280;63796;53.136;14.882;2022-12-29T14:04:00;100098.84;;;13.24
75211;BMP280;63796;53.136;14.882;2022-12-29T14:06:35;100090.76;;;13.20
75211;BMP280;63796;53.136;14.882;2022-12-29T14:09:50;100101.48;;;13.19
75211;BMP280;63796;53.136;14.882;2022-12-29T14:12:40;100109.06;;;13.20
75211;BMP280;63796;53.136;14.882;2022-12-29T14:15:16;100106.93;;;13.17
75211;BMP280;63796;53.136;14.882;2022-12-29T14:17:44;100114.98;;;13.11
75211;BMP280;63796;53.136;14.882;2022-12-29T14:20:23;100113.09;;;13.01
75211;BMP280;63796;53.136;14.882;2022-12-29T14:36:42;100132.70;;;12.44
75211;BMP280;63796;53.136;14.882;2022-12-29T14:39:32;100142.64;;;12.38
75211;BMP280;63796;53.136;14.882;2022-12-29T14:42:15;100142.22;;;12.28
75211;BMP280;63796;53.136;14.882;2022-12-29T14:44:53;100144.95;;;12.19
75211;BMP280;63796;53.136;14.882;2022-12-29T14:58:35;100159.01;;;11.88
75211;BMP280;63796;53.136;14.882;2022-12-29T15:01:01;100158.95;;;11.90
75211;BMP280;63796;53.136;14.882;2022-12-29T15:03:51;100163.25;;;11.93
75211;BMP280;63796;53.136;14.882;2022-12-29T15:06:19;100169.16;;;11.94
75211;BMP280;63796;53.136;14.882;2022-12-29T15:08:54;100169.42;;;11.97
75211;BMP280;63796;53.136;14.882;2022-12-29T15:11:30;100178.91;;;11.99
75211;BMP280;63796;53.136;14.882;2022-12-29T15:13:53;100177.19;;;12.02
75211;BMP280;63796;53.136;14.882;2022-12-29T15:16:32;100178.11;;;12.03
75211;BMP280;63796;53.136;14.882;2022-12-29T15:18:59;100171.56;;;12.05
75211;BMP280;63796;53.136;14.882;2022-12-29T15:21:33;100172.31;;;12.07
75211;BMP280;63796;53.136;14.882;2022-12-29T15:24:02;100173.64;;;12.15
75211;BMP280;63796;53.136;14.882;2022-12-29T15:26:50;100177.02;;;12.16
75211;BMP280;63796;53.136;14.882;2022-12-29T15:32:19;100178.59;;;11.99
75211;BMP280;63796;53.136;14.882;2022-12-29T15:34:53;100183.96;;;11.88
75211;BMP280;63796;53.136;14.882;2022-12-29T15:37:27;100183.97;;;11.79
75211;BMP280;63796;53.136;14.882;2022-12-29T15:39:56;100195.03;;;11.73
75211;BMP280;63796;53.136;14.882;2022-12-29T15:42:48;100193.30;;;11.66
75211;BMP280;63796;53.136;14.882;2022-12-29T15:45:14;100203.41;;;11.59
75211;BMP280;63796;53.136;14.882;2022-12-29T15:47:46;100197.80;;;11.53
75211;BMP280;63796;53.136;14.882;2022-12-29T15:50:26;100205.12;;;11.46
75211;BMP280;63796;53.136;14.882;2022-12-29T15:52:51;100206.05;;;11.42
75211;BMP280;63796;53.136;14.882;2022-12-29T15:55:37;100197.13;;;11.38
75211;BMP280;63796;53.136;14.882;2022-12-29T16:00:57;100194.79;;;11.31
75211;BMP280;63796;53.136;14.882;2022-12-29T16:03:27;100206.94;;;11.25
75211;BMP280;63796;53.136;14.882;2022-12-29T16:06:23;100211.55;;;11.23
75211;BMP280;63796;53.136;14.882;2022-12-29T16:08:40;100210.70;;;11.19
75211;BMP280;63796;53.136;14.882;2022-12-29T16:11:32;100213.66;;;11.17
75211;BMP280;63796;53.136;14.882;2022-12-29T16:14:02;100224.17;;;11.12
75211;BMP280;63796;53.136;14.882;2022-12-29T16:16:41;100220.81;;;11.11
75211;BMP280;63796;53.136;14.882;2022-12-29T16:19:18;100230.89;;;11.10
75211;BMP280;63796;53.136;14.882;2022-12-29T16:21:46;100229.16;;;11.08
75211;BMP280;63796;53.136;14.882;2022-12-29T16:24:21;100233.05;;;11.08
75211;BMP280;63796;53.136;14.882;2022-12-29T16:27:08;100236.94;;;11.08
75211;BMP280;63796;53.136;14.882;2022-12-29T16:29:36;100250.69;;;11.08
75211;BMP280;63796;53.136;14.882;2022-12-29T16:32:29;100251.23;;;11.12
75211;BMP280;63796;53.136;14.882;2022-12-29T16:37:40;100233.84;;;11.24
75211;BMP280;63796;53.136;14.882;2022-12-29T16:40:30;100237.91;;;11.29
75211;BMP280;63796;53.136;14.882;2022-12-29T16:43:02;100243.70;;;11.35
75211;BMP280;63796;53.136;14.882;2022-12-29T16:48:45;100247.81;;;11.38
75211;BMP280;63796;53.136;14.882;2022-12-29T16:51:15;100240.63;;;11.40
75211;BMP280;63796;53.136;14.882;2022-12-29T16:53:52;100239.51;;;11.39
75211;BMP280;63796;53.136;14.882;2022-12-29T16:56:27;100239.23;;;11.38
75211;BMP280;63796;53.136;14.882;2022-12-29T16:59:09;100236.65;;;11.37